Time;durP1;ratioP1;P1;durP2;ratioP2;P2;SDS_P1;SDS_P2;PMS_P1;PMS_P2;Temp;Humidity;BMP_temperature;BMP_pressure;BME280_temperature;BME280_humidity;BME280_pressure;Samples;Min_cycle;Max_cycle;Signal;HPM_P1;HPM_P2
2022/04/03 00:04:59;;;;;;;4.30;1.90;;;;;;;7.17;28.78;101044.13;10337779;28;20210;-84
2022/04/03 00:10:02;;;;;;;4.30;1.90;;;;;;;7.38;28.81;101038.94;10343072;28;20495;-83
2022/04/03 00:15:05;;;;;;;1.63;1.40;;;;;;;6.88;29.16;101046.31;10326067;28;20257;-83
2022/04/03 00:20:08;;;;;;;1.20;1.00;;;;;;;7.10;29.78;101043.69;10343329;28;20284;-85
2022/04/03 00:25:11;;;;;;;2.10;1.27;;;;;;;7.25;28.88;101051.84;10332514;28;20241;-84
2022/04/03 00:30:14;;;;;;;1.87;1.57;;;;;;;7.09;28.37;101053.28;10336442;28;20234;-83
2022/04/03 00:35:17;;;;;;;4.40;1.80;;;;;;;7.40;28.20;101052.72;10357414;28;20308;-85
2022/04/03 00:40:23;;;;;;;4.57;1.50;;;;;;;7.42;28.29;101044.78;10349260;28;20692;-82
2022/04/03 00:45:26;;;;;;;2.23;1.57;;;;;;;7.33;28.95;101047.50;10351145;28;20994;-82
2022/04/03 00:50:29;;;;;;;2.07;1.50;;;;;;;7.16;27.91;101053.69;10322327;28;20300;-85
2022/04/03 00:55:31;;;;;;;2.27;1.50;;;;;;;6.98;28.13;101054.56;10329729;28;20989;-83
2022/04/03 01:00:34;;;;;;;3.73;1.67;;;;;;;7.36;27.97;101052.50;10349632;28;20214;-82
2022/04/03 01:05:36;;;;;;;5.47;1.43;;;;;;;7.32;27.48;101045.00;10331017;28;20226;-82
2022/04/03 01:10:40;;;;;;;1.57;1.40;;;;;;;7.17;27.86;101044.13;10333326;28;20253;-83
2022/04/03 01:15:49;;;;;;;2.07;1.20;;;;;;;7.42;28.09;101042.81;10348913;28;20258;-83
2022/04/03 01:20:53;;;;;;;2.17;1.33;;;;;;;7.05;28.27;101048.56;10333761;28;20317;-86
2022/04/03 01:25:55;;;;;;;3.47;1.60;;;;;;;7.16;28.49;101052.88;10327305;28;20624;-83
2022/04/03 01:30:57;;;;;;;4.33;1.80;;;;;;;7.15;28.83;101052.03;10331288;28;20284;-82
2022/04/03 01:35:59;;;;;;;4.23;1.60;;;;;;;6.79;29.36;101048.16;10331757;28;20613;-82
2022/04/03 01:41:02;;;;;;;1.43;1.20;;;;;;;6.82;28.99;101047.53;10362012;28;20248;-81
2022/04/03 01:46:04;;;;;;;4.90;1.93;;;;;;;7.07;28.92;101061.19;10335462;28;20269;-85
2022/04/03 01:51:06;;;;;;;2.50;1.77;;;;;;;6.87;29.57;101045.47;10329597;28;20292;-85
2022/04/03 01:56:10;;;;;;;1.80;1.50;;;;;;;6.91;28.95;101045.69;10328413;28;20637;-84
2022/04/03 02:01:12;;;;;;;3.10;1.70;;;;;;;6.09;30.16;101048.00;10335888;28;20594;-83
2022/04/03 02:06:15;;;;;;;3.87;1.80;;;;;;;6.87;29.21;101044.63;10335122;28;20210;-84
2022/04/03 02:11:18;;;;;;;2.50;1.40;;;;;;;6.75;29.62;101041.47;10346186;28;20205;-82
2022/04/03 02:16:20;;;;;;;2.30;1.80;;;;;;;6.58;29.69;101049.59;10377043;28;20261;-82
2022/04/03 02:21:22;;;;;;;3.97;1.80;;;;;;;6.85;29.54;101047.75;10341320;28;20225;-82
2022/04/03 02:26:25;;;;;;;3.67;2.10;;;;;;;6.51;29.81;101047.97;10336747;28;20190;-85
2022/04/03 02:31:27;;;;;;;4.10;1.97;;;;;;;6.88;29.63;101051.94;10331533;28;20256;-83
2022/04/03 02:36:29;;;;;;;2.10;1.90;;;;;;;6.87;29.65;101053.06;10359667;28;20277;-85
2022/04/03 02:41:31;;;;;;;3.97;2.30;;;;;;;6.41;30.00;101053.75;10356905;28;20248;-82
2022/04/03 02:46:34;;;;;;;3.03;2.13;;;;;;;6.56;30.03;101054.66;10350807;28;20209;-85
2022/04/03 02:51:37;;;;;;;2.00;1.53;;;;;;;6.17;31.01;101048.19;10365479;28;20590;-84
2022/04/03 02:56:39;;;;;;;3.83;1.87;;;;;;;6.88;29.44;101046.31;10352621;28;20264;-85
2022/04/03 03:01:41;;;;;;;2.70;2.20;;;;;;;6.61;29.95;101043.34;10357324;28;20218;-84
2022/04/03 03:06:44;;;;;;;2.23;1.50;;;;;;;6.43;30.66;101047.84;10318147;28;20233;-83
2022/04/03 03:11:46;;;;;;;7.47;2.10;;;;;;;6.61;29.92;101046.97;10354107;28;20299;-87
2022/04/03 03:16:49;;;;;;;2.73;1.83;;;;;;;6.32;30.16;101052.78;10359939;28;20269;-83
2022/04/03 03:21:51;;;;;;;2.67;2.07;;;;;;;5.61;30.96;101047.19;10361322;28;20256;-84
2022/04/03 03:26:53;;;;;;;2.40;1.60;;;;;;;6.44;30.41;101053.16;10335122;28;20218;-85
2022/04/03 03:31:56;;;;;;;1.97;1.63;;;;;;;6.54;30.19;101049.34;10367084;28;20573;-84
2022/04/03 03:36:59;;;;;;;3.43;2.00;;;;;;;6.45;29.87;101049.22;10349624;28;20256;-87
2022/04/03 03:42:04;;;;;;;2.20;1.70;;;;;;;6.51;30.10;101052.75;10338529;28;20242;-85
2022/04/03 03:47:07;;;;;;;2.53;1.90;;;;;;;5.62;30.70;101052.50;10354368;28;20236;-84
2022/04/03 03:52:12;;;;;;;3.03;1.97;;;;;;;6.33;30.36;101062.03;10331892;28;20240;-85
2022/04/03 03:57:14;;;;;;;3.20;1.97;;;;;;;5.87;31.25;101061.78;10340615;28;20625;-85
2022/04/03 04:02:17;;;;;;;2.23;1.73;;;;;;;6.28;30.41;101059.28;10341678;28;20290;-85
2022/04/03 04:07:19;;;;;;;3.40;2.00;;;;;;;6.26;29.86;101058.75;10337579;28;20228;-86
2022/04/03 04:12:22;;;;;;;3.47;2.23;;;;;;;5.19;31.93;101070.31;10344205;28;20584;-85
2022/04/03 04:17:24;;;;;;;2.70;2.00;;;;;;;6.06;30.83;101068.28;10354029;28;20671;-85
2022/04/03 04:22:26;;;;;;;4.23;2.03;;;;;;;6.18;30.43;101066.72;10379950;28;20253;-84
2022/04/03 04:27:29;;;;;;;3.87;1.93;;;;;;;6.42;30.34;101072.28;10363367;28;20331;-84
2022/04/03 04:32:32;;;;;;;2.50;1.90;;;;;;;6.34;30.33;101075.75;10362203;28;20249;-85
2022/04/03 04:37:35;;;;;;;3.60;2.40;;;;;;;5.01;32.16;101086.75;10356305;28;20303;-85
2022/04/03 04:42:38;;;;;;;2.43;1.70;;;;;;;5.70;30.62;101085.53;10374377;28;20220;-86
2022/04/03 04:47:41;;;;;;;2.43;1.83;;;;;;;5.24;31.13;101101.13;10314854;28;20229;-85
2022/04/03 04:52:43;;;;;;;4.40;1.90;;;;;;;5.95;30.43;101094.78;10303637;28;20554;-86
2022/04/03 04:57:50;;;;;;;1.77;1.67;;;;;;;6.09;30.34;101096.56;10344246;28;20232;-85
2022/04/03 05:02:53;;;;;;;4.00;2.10;;;;;;;6.28;29.95;101096.63;10340030;28;20260;-84
2022/04/03 05:07:56;;;;;;;3.77;1.93;;;;;;;5.61;31.04;101109.72;10329216;28;20268;-85
2022/04/03 05:12:59;;;;;;;3.10;2.20;;;;;;;5.47;31.20;101109.56;10332173;28;20237;-86
2022/04/03 05:18:03;;;;;;;2.80;2.20;;;;;;;5.85;31.01;101112.59;10348450;28;20249;-86
2022/04/03 05:23:06;;;;;;;2.53;2.33;;;;;;;5.75;31.32;101121.97;10341047;28;20278;-85
2022/04/03 05:28:09;;;;;;;4.43;2.43;;;;;;;5.70;30.59;101122.00;10348354;28;20201;-87
2022/04/03 05:33:17;;;;;;;2.67;2.40;;;;;;;5.70;31.07;101138.00;10361303;28;20271;-86
2022/04/03 05:38:23;;;;;;;3.63;2.33;;;;;;;5.67;30.16;101142.25;10329087;28;20202;-86
2022/04/03 05:43:26;;;;;;;4.27;2.43;;;;;;;5.67;30.65;101142.25;10331109;28;20217;-86
2022/04/03 05:48:28;;;;;;;2.53;2.00;;;;;;;5.78;30.26;101135.41;10340569;28;20681;-87
2022/04/03 05:53:31;;;;;;;4.00;2.20;;;;;;;5.64;31.00;101134.38;10329377;28;20323;-82
2022/04/03 05:58:33;;;;;;;4.90;2.57;;;;;;;5.69;30.71;101139.13;10337615;28;20237;-84
2022/04/03 06:03:36;;;;;;;3.53;2.30;;;;;;;5.74;30.53;101145.53;10336561;28;20233;-85
2022/04/03 06:08:38;;;;;;;3.27;2.20;;;;;;;5.82;30.33;101149.66;10318345;28;20233;-85
2022/04/03 06:13:41;;;;;;;2.70;2.20;;;;;;;5.76;30.27;101153.66;10330266;28;20253;-86
2022/04/03 06:18:44;;;;;;;2.33;1.83;;;;;;;6.04;29.75;101155.59;10346794;28;20249;-86
2022/04/03 06:23:46;;;;;;;2.83;2.30;;;;;;;5.76;30.11;101154.50;10308067;28;20234;-84
2022/04/03 06:28:49;;;;;;;4.07;2.00;;;;;;;5.68;30.31;101149.50;10295019;28;20292;-85
2022/04/03 06:33:52;;;;;;;4.70;2.27;;;;;;;6.32;29.23;101156.69;10307692;28;20262;-84
2022/04/03 06:38:55;;;;;;;2.40;1.80;;;;;;;5.92;29.45;101157.97;10308723;28;20242;-88
2022/04/03 06:43:59;;;;;;;4.43;2.00;;;;;;;5.48;30.32;101160.91;10295389;28;20227;-85
2022/04/03 06:49:01;;;;;;;4.63;2.20;;;;;;;6.22;29.46;101156.78;10292384;28;20289;-85
2022/04/03 06:54:03;;;;;;;3.40;2.27;;;;;;;6.81;28.21;101158.28;10314573;28;20289;-85
2022/04/03 06:59:06;;;;;;;2.73;1.90;;;;;;;6.47;29.24;101159.25;10300998;28;20825;-82
2022/04/03 07:04:08;;;;;;;2.77;2.00;;;;;;;5.28;30.76;101169.50;10288554;28;20672;-83
2022/04/03 07:09:11;;;;;;;3.17;2.10;;;;;;;6.17;29.10;101170.91;10325900;28;20210;-84
2022/04/03 07:14:13;;;;;;;3.57;1.70;;;;;;;7.44;27.12;101160.66;10301938;28;20276;-85
2022/04/03 07:19:15;;;;;;;1.67;1.57;;;;;;;6.90;27.51;101156.47;10300462;28;20225;-81
2022/04/03 07:24:17;;;;;;;3.40;1.10;;;;;;;6.14;27.77;101165.88;10353030;28;20288;-83
2022/04/03 07:29:21;;;;;;;3.40;0.93;;;;;;;6.37;27.90;101162.22;10329522;28;20660;-84
2022/04/03 07:34:24;;;;;;;2.40;1.23;;;;;;;7.12;25.91;101153.03;10367951;28;20719;-84
2022/04/03 07:39:26;;;;;;;1.37;1.27;;;;;;;7.42;25.87;101169.41;10365673;28;20304;-86
2022/04/03 07:44:28;;;;;;;5.20;1.20;;;;;;;7.27;27.32;101164.03;10356228;28;20228;-82
2022/04/03 07:49:31;;;;;;;1.20;1.10;;;;;;;6.59;26.42;101172.88;10330789;28;21383;-83
2022/04/03 07:54:35;;;;;;;2.80;1.30;;;;;;;7.53;25.32;101168.09;10349346;28;20743;-82
2022/04/03 07:59:37;;;;;;;2.47;1.53;;;;;;;8.18;25.80;101167.22;10357752;28;20232;-82
2022/04/03 08:04:40;;;;;;;1.93;0.83;;;;;;;8.11;24.82;101172.44;10329666;28;20237;-85
2022/04/03 08:09:42;;;;;;;2.20;0.90;;;;;;;7.42;25.50;101180.66;10362675;28;20249;-85
2022/04/03 08:14:44;;;;;;;1.97;1.00;;;;;;;8.24;24.30;101166.81;10352554;28;20260;-84
2022/04/03 08:19:46;;;;;;;1.17;0.73;;;;;;;8.39;24.12;101176.94;10380836;28;20257;-84
2022/04/03 08:24:49;;;;;;;2.13;1.27;;;;;;;6.79;26.95;101178.25;10346131;28;20233;-82
2022/04/03 08:29:52;;;;;;;1.57;1.00;;;;;;;6.54;24.89;101184.19;10344539;28;20267;-84
2022/04/03 08:34:56;;;;;;;1.67;1.20;;;;;;;7.77;24.87;101184.88;10372534;28;20256;-83
2022/04/03 08:39:58;;;;;;;1.63;1.27;;;;;;;6.59;24.60;101188.94;10341079;28;20241;-81
2022/04/03 08:45:00;;;;;;;1.10;1.00;;;;;;;6.31;25.55;101183.09;10358459;28;20230;-85
2022/04/03 08:50:03;;;;;;;2.33;1.17;;;;;;;8.09;23.72;101188.78;10369673;28;20264;-82
2022/04/03 08:55:06;;;;;;;1.40;0.80;;;;;;;6.26;24.02;101185.94;10354448;28;20240;-83
2022/04/03 09:00:09;;;;;;;1.83;0.80;;;;;;;6.51;25.06;101188.44;10364221;28;20232;-83
2022/04/03 09:05:12;;;;;;;2.53;1.17;;;;;;;7.69;23.57;101185.56;10340960;28;20228;-86
2022/04/03 09:10:16;;;;;;;1.53;0.93;;;;;;;7.29;23.60;101186.22;10372449;28;20237;-82
2022/04/03 09:15:22;;;;;;;1.83;0.63;;;;;;;7.64;23.47;101194.06;10355966;28;20252;-82
2022/04/03 09:20:37;;;;;;;0.77;0.67;;;;;;;6.04;24.12;101196.88;10358758;28;20575;-82
2022/04/03 09:25:41;;;;;;;0.73;0.70;;;;;;;6.70;24.63;101191.28;10329825;28;20910;-82
2022/04/03 09:30:45;;;;;;;2.97;0.90;;;;;;;6.83;24.28;101199.03;10357715;28;20241;-82
2022/04/03 09:35:55;;;;;;;4.70;2.43;;;;;;;6.23;24.67;101186.53;10357436;28;20284;-85
2022/04/03 09:40:59;;;;;;;1.10;0.93;;;;;;;7.14;25.16;101196.56;10375424;28;20233;-82
2022/04/03 09:46:12;;;;;;;1.37;0.80;;;;;;;6.93;24.89;101191.56;10379155;28;20231;-83
2022/04/03 09:51:19;;;;;;;1.50;0.70;;;;;;;4.95;26.77;101202.78;10348849;28;20587;-82
2022/04/03 09:56:23;;;;;;;1.00;0.90;;;;;;;6.02;26.61;101199.97;10308638;28;20280;-82
2022/04/03 10:01:39;;;;;;;1.37;0.90;;;;;;;4.93;27.69;101202.22;10338987;28;20237;-82
2022/04/03 10:06:43;;;;;;;1.27;1.00;;;;;;;3.92;29.33;101209.03;10336972;28;20233;-83
2022/04/03 10:11:46;;;;;;;3.80;1.27;;;;;;;5.14;27.62;101199.31;10317719;28;20230;-81
2022/04/03 10:16:49;;;;;;;2.47;1.13;;;;;;;6.01;26.66;101194.66;10318431;28;20441;-84
2022/04/03 10:21:54;;;;;;;2.40;0.80;;;;;;;7.17;26.38;101184.72;10336029;28;20800;-83
2022/04/03 10:26:59;;;;;;;3.03;0.67;;;;;;;6.95;25.47;101181.69;10352254;28;20571;-84
2022/04/03 10:32:05;;;;;;;1.47;0.77;;;;;;;7.65;26.62;101181.69;10341427;28;20343;-83
2022/04/03 10:37:33;;;;;;;1.53;0.50;;;;;;;8.49;24.17;101176.72;10340676;28;20273;-82
2022/04/03 10:43:01;;;;;;;1.57;0.57;;;;;;;7.58;23.89;101178.44;10337724;28;20688;-83
2022/04/03 10:48:21;;;;;;;0.80;0.50;;;;;;;6.63;25.31;101170.31;10326035;28;20224;-81
2022/04/03 10:53:35;;;;;;;1.30;0.60;;;;;;;8.16;25.47;101161.03;10342420;28;20288;-85
2022/04/03 10:58:44;;;;;;;0.70;0.53;;;;;;;8.33;25.05;101144.38;10290954;28;20388;-81
2022/04/03 11:03:53;;;;;;;0.93;0.40;;;;;;;8.34;26.10;101146.03;10341045;28;20691;-81
2022/04/03 11:08:58;;;;;;;0.83;0.50;;;;;;;8.48;25.69;101141.22;10342661;28;20229;-85
2022/04/03 11:14:00;;;;;;;1.13;0.50;;;;;;;8.88;26.08;101144.31;10345734;28;20298;-87
2022/04/03 11:19:03;;;;;;;1.20;0.63;;;;;;;8.63;26.99;101137.25;10330911;28;20723;-82
2022/04/03 11:24:14;;;;;;;0.93;0.40;;;;;;;9.70;24.03;101118.59;10342617;28;20259;-82
2022/04/03 11:29:16;;;;;;;0.67;0.40;;;;;;;9.20;24.36;101124.34;10337126;28;20915;-82
2022/04/03 11:34:18;;;;;;;2.30;0.50;;;;;;;9.32;24.34;101110.47;10345205;28;20241;-83
2022/04/03 11:39:21;;;;;;;0.80;0.40;;;;;;;8.46;25.59;101109.69;10334397;28;20254;-83
2022/04/03 11:44:29;;;;;;;0.53;0.40;;;;;;;9.12;24.42;101091.25;10335737;28;20558;-82
2022/04/03 11:49:32;;;;;;;0.80;0.47;;;;;;;8.88;26.27;101104.84;10350524;28;20232;-83
2022/04/03 11:54:35;;;;;;;1.97;0.37;;;;;;;8.67;25.43;101093.16;10347861;28;20241;-83
2022/04/03 11:59:39;;;;;;;1.63;0.50;;;;;;;9.90;24.39;101070.00;10338919;28;20295;-83
2022/04/03 12:04:43;;;;;;;2.03;0.53;;;;;;;9.41;24.94;101073.03;10351315;28;20282;-84
2022/04/03 12:09:49;;;;;;;1.50;0.47;;;;;;;10.16;25.52;101066.44;10328669;28;20225;-82
2022/04/03 12:14:51;;;;;;;0.87;0.50;;;;;;;8.98;24.55;101065.94;10306097;28;20257;-83
2022/04/03 12:19:54;;;;;;;0.77;0.30;;;;;;;8.96;25.67;101056.13;10348333;28;20847;-83
2022/04/03 12:24:56;;;;;;;2.60;0.50;;;;;;;9.83;24.76;101049.88;10347134;28;20237;-83
2022/04/03 12:29:59;;;;;;;2.90;1.03;;;;;;;10.13;23.56;101038.81;10353189;28;20233;-83
2022/04/03 12:35:09;;;;;;;1.00;0.70;;;;;;;9.77;24.55;101037.06;10345149;28;20794;-81
2022/04/03 12:40:12;;;;;;;1.33;0.80;;;;;;;11.34;23.16;101023.59;10341405;28;20298;-85
2022/04/03 12:45:16;;;;;;;0.77;0.50;;;;;;;8.85;24.53;101024.53;10343990;28;20226;-82
2022/04/03 12:50:21;;;;;;;1.10;0.80;;;;;;;9.27;24.27;101017.53;10369179;28;20225;-82
2022/04/03 13:00:25;;;;;;;2.43;1.50;;;;;;;9.51;24.28;101014.31;10339611;28;20235;-83
2022/04/03 13:05:31;;;;;;;1.40;1.10;;;;;;;7.83;26.76;101025.16;10354500;28;20287;-83
2022/04/03 13:10:34;;;;;;;1.40;1.30;;;;;;;9.13;25.37;101021.56;10357130;28;20237;-82
2022/04/03 13:15:36;;;;;;;2.13;1.17;;;;;;;9.51;24.59;101010.66;10370349;28;20308;-82
2022/04/03 13:20:38;;;;;;;1.67;1.27;;;;;;;9.28;26.54;101027.66;10353059;28;20256;-83
2022/04/03 13:25:41;;;;;;;0.77;0.57;;;;;;;7.64;28.80;101025.22;10341874;28;20622;-86
2022/04/03 13:30:44;;;;;;;2.07;0.50;;;;;;;6.70;29.94;101027.47;10351846;28;20343;-83
2022/04/03 13:35:47;;;;;;;0.93;0.67;;;;;;;9.02;27.03;101027.50;10343651;28;20348;-83
2022/04/03 13:40:49;;;;;;;0.57;0.53;;;;;;;9.81;26.10;101007.00;10345830;28;20711;-85
2022/04/03 13:45:57;;;;;;;3.00;0.73;;;;;;;8.39;28.25;101007.88;10324252;28;20268;-82
2022/04/03 13:51:01;;;;;;;4.40;0.70;;;;;;;8.99;27.91;101002.75;10336403;28;20308;-83
2022/04/03 13:56:03;;;;;;;3.10;0.60;;;;;;;10.44;26.71;100983.84;10328226;28;20331;-83
2022/04/03 14:01:08;;;;;;;1.60;0.70;;;;;;;9.86;27.13;100989.91;10364667;28;20256;-82
2022/04/03 14:06:11;;;;;;;0.67;0.60;;;;;;;9.47;26.94;100981.41;10334855;28;20228;-83
2022/04/03 14:11:14;;;;;;;3.90;0.43;;;;;;;8.68;28.39;100990.56;10344855;28;20236;-85
2022/04/03 14:16:17;;;;;;;0.80;0.53;;;;;;;9.80;26.36;100977.09;10346968;28;20252;-81
2022/04/03 14:21:23;;;;;;;0.77;0.40;;;;;;;8.66;26.79;100968.28;10336555;28;20703;-81
2022/04/03 14:26:26;;;;;;;1.10;0.93;;;;;;;9.03;26.84;100960.63;10357119;28;20610;-83
2022/04/03 14:31:30;;;;;;;1.27;0.53;;;;;;;10.99;24.93;100951.22;10354076;28;20229;-81
2022/04/03 14:36:32;;;;;;;1.97;0.60;;;;;;;8.41;27.32;100952.00;10339199;28;20256;-83
2022/04/03 14:41:34;;;;;;;1.33;0.30;;;;;;;9.79;25.66;100940.72;10344545;28;20244;-81
2022/04/03 14:46:37;;;;;;;0.77;0.50;;;;;;;10.56;24.71;100940.81;10314061;28;20264;-83
2022/04/03 14:51:40;;;;;;;0.77;0.50;;;;;;;10.09;24.75;100937.75;10287805;28;20637;-81
2022/04/03 14:56:42;;;;;;;1.30;0.43;;;;;;;10.59;25.42;100928.84;10302026;28;20273;-86
2022/04/03 15:01:45;;;;;;;1.97;0.70;;;;;;;10.72;24.94;100927.81;10293063;28;20234;-82
2022/04/03 15:06:47;;;;;;;1.07;0.80;;;;;;;11.59;24.36;100919.88;10289170;28;20234;-82
2022/04/03 15:11:51;;;;;;;1.00;0.80;;;;;;;11.05;24.40;100918.75;10295396;28;20233;-82
2022/04/03 15:16:59;;;;;;;2.20;1.30;;;;;;;11.41;24.71;100918.28;10300213;28;20323;-82
2022/04/03 15:22:05;;;;;;;1.13;1.03;;;;;;;9.91;26.16;100924.78;10308164;28;20261;-83
2022/04/03 15:27:07;;;;;;;0.50;0.50;;;;;;;10.55;25.38;100922.19;10303384;28;20308;-85
2022/04/03 15:32:10;;;;;;;2.17;0.77;;;;;;;10.64;24.96;100917.34;10280758;28;20300;-83
2022/04/03 15:37:13;;;;;;;0.87;0.87;;;;;;;10.88;25.42;100921.63;10298682;28;20245;-86
2022/04/03 15:42:15;;;;;;;1.73;0.90;;;;;;;11.69;23.86;100904.50;10299415;28;20308;-83
2022/04/03 15:47:18;;;;;;;1.00;0.83;;;;;;;8.82;26.82;100915.22;10302372;28;20289;-83
2022/04/03 15:52:20;;;;;;;1.77;0.53;;;;;;;9.58;25.87;100910.22;10269060;28;20631;-83
2022/04/03 15:57:23;;;;;;;1.67;0.60;;;;;;;10.34;25.18;100915.53;10288989;28;20253;-83
2022/04/03 16:02:29;;;;;;;1.57;0.57;;;;;;;8.70;26.61;100922.59;10290438;28;20254;-83
2022/04/03 16:07:31;;;;;;;1.13;0.60;;;;;;;9.97;25.49;100911.31;10287272;28;20309;-84
2022/04/03 16:12:33;;;;;;;0.60;0.60;;;;;;;10.73;24.56;100917.34;10294129;28;20230;-83
2022/04/03 16:17:36;;;;;;;2.27;0.90;;;;;;;8.30;27.86;100926.06;10308781;28;20265;-82
2022/04/03 16:22:39;;;;;;;0.80;0.80;;;;;;;10.29;25.86;100922.16;10308912;28;20312;-84
2022/04/03 16:27:41;;;;;;;2.00;0.90;;;;;;;9.98;26.63;100927.94;10309576;28;20561;-83
2022/04/03 16:32:44;;;;;;;1.20;1.10;;;;;;;10.82;26.20;100925.81;10288641;28;20238;-82
2022/04/03 16:37:47;;;;;;;1.90;1.13;;;;;;;10.83;25.92;100914.16;10331460;28;20253;-82
2022/04/03 16:42:49;;;;;;;1.47;1.33;;;;;;;11.25;25.86;100911.53;10324808;28;20860;-85
2022/04/03 16:47:53;;;;;;;1.67;1.57;;;;;;;11.71;25.39;100902.16;10337405;28;20303;-82
2022/04/03 16:52:55;;;;;;;2.83;1.97;;;;;;;10.52;26.92;100905.06;10318796;28;20233;-82
2022/04/03 16:57:57;;;;;;;2.63;1.90;;;;;;;10.88;25.82;100901.81;10322589;28;20289;-85
2022/04/03 17:03:00;;;;;;;3.33;1.70;;;;;;;11.41;25.91;100899.31;10330502;28;20234;-83
2022/04/03 17:08:02;;;;;;;2.57;2.17;;;;;;;10.96;26.48;100893.31;10318904;28;20309;-85
2022/04/03 17:13:05;;;;;;;3.27;2.30;;;;;;;11.76;25.23;100887.81;10300840;28;20225;-84
2022/04/03 17:18:07;;;;;;;1.73;1.63;;;;;;;11.08;25.68;100895.44;10293879;28;20261;-84
2022/04/03 17:23:10;;;;;;;3.13;1.43;;;;;;;11.44;25.33;100886.47;10316617;28;20305;-83
2022/04/03 17:28:13;;;;;;;2.83;2.63;;;;;;;11.08;26.21;100889.78;10314334;28;20221;-83
2022/04/03 17:33:17;;;;;;;6.73;3.20;;;;;;;11.59;26.15;100876.56;10299432;28;20229;-84
2022/04/03 17:38:20;;;;;;;3.47;2.57;;;;;;;11.06;26.13;100880.78;10289693;28;20253;-84
2022/04/03 17:43:22;;;;;;;4.33;2.83;;;;;;;11.07;26.55;100879.63;10290936;28;20242;-83
2022/04/03 17:48:26;;;;;;;2.50;2.10;;;;;;;10.75;27.39;100887.53;10289445;28;20234;-84
2022/04/03 17:53:28;;;;;;;4.20;2.03;;;;;;;10.71;27.18;100880.09;10334953;28;20266;-84
2022/04/03 17:58:31;;;;;;;1.47;1.30;;;;;;;10.80;26.89;100880.88;10318136;28;20333;-84
2022/04/03 18:03:33;;;;;;;1.13;1.03;;;;;;;10.69;26.31;100882.41;10330194;28;20234;-83
2022/04/03 18:08:35;;;;;;;1.27;1.17;;;;;;;10.73;26.10;100889.06;10336554;28;20237;-84
2022/04/03 18:13:39;;;;;;;1.63;1.20;;;;;;;9.63;27.20;100895.16;10301500;28;20688;-83
2022/04/03 18:18:42;;;;;;;1.10;1.00;;;;;;;9.01;27.82;100900.88;10326602;28;20622;-84
2022/04/03 18:23:45;;;;;;;2.33;0.90;;;;;;;9.98;26.97;100899.69;10326635;28;20258;-83
2022/04/03 18:28:48;;;;;;;2.80;0.87;;;;;;;9.73;27.73;100894.84;10300483;28;20234;-83
2022/04/03 18:33:50;;;;;;;0.73;0.73;;;;;;;9.33;27.71;100903.34;10311596;28;20230;-82
2022/04/03 18:38:53;;;;;;;1.10;0.87;;;;;;;9.06;28.54;100902.72;10315660;28;20298;-84
2022/04/03 18:43:55;;;;;;;1.20;0.90;;;;;;;9.91;27.75;100912.66;10311924;28;20237;-84
2022/04/03 18:48:57;;;;;;;2.43;0.93;;;;;;;8.32;30.47;100922.94;10317679;28;20230;-84
2022/04/03 18:54:00;;;;;;;1.57;1.00;;;;;;;10.47;27.20;100919.38;10305019;28;20564;-83
2022/04/03 18:59:03;;;;;;;1.13;1.03;;;;;;;10.74;26.74;100911.31;10303231;28;20592;-82
2022/04/03 19:04:05;;;;;;;1.53;1.07;;;;;;;10.56;27.29;100912.53;10335808;28;20229;-82
2022/04/03 19:09:07;;;;;;;1.57;1.03;;;;;;;10.89;27.00;100920.44;10308645;28;20293;-83
2022/04/03 19:14:16;;;;;;;1.20;1.10;;;;;;;10.65;27.52;100921.00;10302936;28;20253;-84
2022/04/03 19:19:21;;;;;;;2.80;1.37;;;;;;;9.91;28.12;100921.97;10320034;28;20309;-83
2022/04/03 19:24:25;;;;;;;1.73;1.27;;;;;;;10.64;27.47;100920.16;10294796;28;21765;-82
2022/04/03 19:29:28;;;;;;;1.97;1.70;;;;;;;10.92;27.17;100925.44;10265627;28;20226;-84
2022/04/03 19:34:31;;;;;;;2.17;1.60;;;;;;;10.80;27.40;100928.97;10291330;28;20282;-82
2022/04/03 19:39:33;;;;;;;2.20;1.37;;;;;;;10.66;27.53;100934.81;10285117;28;20254;-83
2022/04/03 19:44:35;;;;;;;2.20;1.43;;;;;;;10.40;28.73;100931.13;10312754;28;20308;-82
2022/04/03 19:49:37;;;;;;;2.80;1.63;;;;;;;10.96;27.69;100932.09;10297500;28;20234;-82
2022/04/03 19:54:39;;;;;;;5.00;2.00;;;;;;;10.41;28.45;100933.63;10303307;28;20619;-82
2022/04/03 19:59:43;;;;;;;2.70;1.77;;;;;;;10.42;28.17;100926.81;10296963;28;21222;-81
2022/04/03 20:04:46;;;;;;;1.80;1.70;;;;;;;10.31;28.95;100924.66;10318358;28;20253;-82
2022/04/03 20:09:49;;;;;;;1.73;1.63;;;;;;;10.74;28.00;100916.97;10291361;28;20235;-81
2022/04/03 20:14:52;;;;;;;4.43;2.43;;;;;;;11.20;27.40;100908.88;10279973;28;20261;-85
2022/04/03 20:19:55;;;;;;;2.70;1.97;;;;;;;10.68;28.17;100912.69;10314826;28;20309;-82
2022/04/03 20:24:57;;;;;;;4.90;3.03;;;;;;;9.75;29.48;100914.28;10295373;28;20238;-81
2022/04/03 20:29:59;;;;;;;2.27;2.00;;;;;;;10.28;28.96;100914.00;10301623;28;20293;-82
2022/04/03 20:35:03;;;;;;;3.00;2.40;;;;;;;10.22;28.69;100918.19;10275282;28;20595;-82
2022/04/03 20:40:05;;;;;;;6.40;2.27;;;;;;;9.82;29.32;100909.84;10298585;28;20643;-83
2022/04/03 20:45:08;;;;;;;4.87;2.40;;;;;;;9.87;29.36;100912.47;10300973;28;20237;-84
2022/04/03 20:50:10;;;;;;;2.47;1.83;;;;;;;9.65;29.36;100904.97;10308101;28;20257;-82
2022/04/03 20:55:12;;;;;;;2.53;2.30;;;;;;;9.48;29.61;100910.53;10312900;28;20330;-81
2022/04/03 21:00:15;;;;;;;3.23;2.23;;;;;;;9.31;29.98;100910.50;10303471;28;20261;-81
2022/04/03 21:05:17;;;;;;;3.37;2.30;;;;;;;9.19;29.99;100902.63;10317769;28;20289;-82
2022/04/03 21:10:19;;;;;;;3.83;2.47;;;;;;;9.36;29.92;100902.69;10311771;28;20733;-83
2022/04/03 21:15:22;;;;;;;2.20;1.97;;;;;;;9.15;29.98;100895.97;10326737;28;20319;-81
2022/04/03 21:20:24;;;;;;;2.97;2.33;;;;;;;8.73;30.85;100893.75;10314130;28;20306;-81
2022/04/03 21:25:27;;;;;;;6.53;2.43;;;;;;;8.71;30.90;100902.53;10309252;28;20285;-81
2022/04/03 21:30:29;;;;;;;2.97;2.67;;;;;;;8.90;30.44;100889.06;10304304;28;20567;-84
2022/04/03 21:35:31;;;;;;;3.43;2.80;;;;;;;8.10;31.90;100889.13;10305578;28;20242;-84
2022/04/03 21:40:34;;;;;;;4.67;2.67;;;;;;;8.21;31.87;100882.09;10310414;28;20281;-83
2022/04/03 21:45:37;;;;;;;3.70;2.90;;;;;;;8.17;31.85;100881.06;10303452;28;20239;-83
2022/04/03 21:50:39;;;;;;;3.77;2.83;;;;;;;8.45;31.57;100876.97;10284481;28;20242;-82
2022/04/03 21:55:42;;;;;;;5.03;3.77;;;;;;;8.00;32.23;100873.31;10280832;28;20553;-81
2022/04/03 22:00:59;;;;;;;4.00;3.60;;;;;;;8.15;32.17;100883.38;10283015;28;20292;-81
2022/04/03 22:06:02;;;;;;;3.40;3.10;;;;;;;7.58;33.07;100880.16;10314739;28;20233;-86
2022/04/03 22:11:04;;;;;;;5.20;2.60;;;;;;;8.02;32.35;100870.16;10267565;28;20222;-82
2022/04/03 22:16:07;;;;;;;4.80;2.83;;;;;;;8.38;32.00;100870.13;10307014;28;20257;-82
2022/04/03 22:21:09;;;;;;;3.10;2.80;;;;;;;7.91;32.43;100861.13;10278350;28;20262;-82
2022/04/03 22:26:12;;;;;;;2.57;2.20;;;;;;;8.35;31.84;100865.97;10283624;28;20908;-82
2022/04/03 22:31:14;;;;;;;4.77;2.43;;;;;;;8.39;31.71;100860.53;10305778;28;20256;-83
2022/04/03 22:36:17;;;;;;;2.90;2.53;;;;;;;8.34;31.46;100869.94;10293304;28;20305;-82
2022/04/03 22:41:20;;;;;;;2.97;2.13;;;;;;;8.13;32.08;100869.63;10279215;28;20634;-84
2022/04/03 22:46:22;;;;;;;4.10;2.87;;;;;;;7.71;32.68;100862.41;10310093;28;20241;-84
2022/04/03 22:51:25;;;;;;;2.73;2.50;;;;;;;8.57;31.15;100840.56;10304478;28;20253;-82
2022/04/03 22:56:27;;;;;;;2.43;2.23;;;;;;;7.45;32.94;100845.28;10301167;28;20233;-82
2022/04/03 23:01:51;;;;;;;4.30;2.83;;;;;;;7.38;33.40;100844.03;10299854;28;20608;-82
2022/04/03 23:06:53;;;;;;;4.50;3.00;;;;;;;7.42;33.32;100839.44;10292956;28;20262;-84
2022/04/03 23:11:56;;;;;;;4.27;2.93;;;;;;;7.91;32.23;100831.00;10295116;28;20231;-82
2022/04/03 23:16:59;;;;;;;4.13;3.40;;;;;;;7.46;33.11;100827.25;10299994;28;20222;-81
2022/04/03 23:22:01;;;;;;;4.97;3.90;;;;;;;8.65;31.20;100819.25;10291711;28;20743;-81
2022/04/03 23:27:03;;;;;;;3.30;3.00;;;;;;;8.11;32.15;100814.75;10314301;28;20225;-81
2022/04/03 23:32:06;;;;;;;3.63;3.33;;;;;;;7.91;32.44;100816.91;10263540;28;20293;-83
2022/04/03 23:37:09;;;;;;;5.23;3.57;;;;;;;7.01;33.65;100816.97;10285864;28;20230;-81